Time;durP1;ratioP1;P1;durP2;ratioP2;P2;SDS_P1;SDS_P2;PMS_P1;PMS_P2;Temp;Humidity;BMP_temperature;BMP_pressure;BME280_temperature;BME280_humidity;BME280_pressure;Samples;Min_cycle;Max_cycle;Signal;HPM_P1;HPM_P2
2023/08/16 00:02:03;;;;;;;12.02;7.03;;;17.60;99.90;;;;;;4868308;29;20060;-77
2023/08/16 00:04:29;;;;;;;12.15;7.50;;;17.60;99.90;;;;;;4878438;29;20441;-76
2023/08/16 00:06:54;;;;;;;14.40;6.90;;;17.60;99.90;;;;;;4836639;29;20102;-75
2023/08/16 00:09:20;;;;;;;12.93;7.13;;;17.50;99.90;;;;;;4876849;29;20128;-76
2023/08/16 00:11:46;;;;;;;11.23;6.93;;;17.50;99.90;;;;;;4871419;29;20055;-76
2023/08/16 00:14:12;;;;;;;8.90;6.30;;;17.50;99.90;;;;;;4877078;29;20049;-76
2023/08/16 00:16:38;;;;;;;9.13;6.57;;;17.40;99.90;;;;;;4862334;29;20403;-76
2023/08/16 00:19:04;;;;;;;9.48;6.45;;;17.40;99.90;;;;;;4877151;29;20392;-76
2023/08/16 00:21:30;;;;;;;13.23;6.43;;;17.40;99.90;;;;;;4861768;29;20440;-76
2023/08/16 00:23:55;;;;;;;10.65;6.50;;;17.40;99.90;;;;;;4862447;29;20502;-76
2023/08/16 00:26:21;;;;;;;10.90;5.68;;;17.40;99.90;;;;;;4876353;29;20091;-76
2023/08/16 00:28:48;;;;;;;13.15;6.07;;;17.40;99.90;;;;;;4877932;29;20052;-76
2023/08/16 00:31:18;;;;;;;13.00;5.72;;;17.40;99.90;;;;;;4862104;29;20417;-76
2023/08/16 00:33:43;;;;;;;13.57;6.35;;;17.40;99.90;;;;;;4847494;29;20197;-75
2023/08/16 00:36:09;;;;;;;11.60;5.45;;;17.30;99.90;;;;;;4860890;29;20552;-76
2023/08/16 00:38:35;;;;;;;11.93;5.97;;;17.30;99.90;;;;;;4877202;29;20136;-76
2023/08/16 00:41:01;;;;;;;12.05;6.03;;;17.30;99.90;;;;;;4867041;29;20053;-80
2023/08/16 00:43:26;;;;;;;11.25;6.43;;;17.30;99.90;;;;;;4881405;29;20056;-76
2023/08/16 00:45:52;;;;;;;11.63;6.00;;;17.30;99.90;;;;;;4861975;29;20069;-77
2023/08/16 00:48:18;;;;;;;11.48;5.75;;;17.30;99.90;;;;;;4861215;29;20068;-77
2023/08/16 00:50:47;;;;;;;11.05;6.35;;;17.20;99.90;;;;;;4861776;29;20148;-77
2023/08/16 00:53:18;;;;;;;9.15;5.80;;;17.20;99.90;;;;;;4898747;29;20079;-76
2023/08/16 00:55:44;;;;;;;9.65;5.85;;;17.20;99.90;;;;;;4861285;29;20084;-76
2023/08/16 00:58:10;;;;;;;8.48;5.78;;;17.20;99.90;;;;;;4861049;29;20131;-76
2023/08/16 01:00:36;;;;;;;7.93;5.53;;;17.20;99.90;;;;;;4846517;29;20137;-75
2023/08/16 01:03:02;;;;;;;9.95;5.95;;;17.20;99.90;;;;;;4862255;29;20114;-77
2023/08/16 01:05:27;;;;;;;8.60;5.75;;;17.10;99.90;;;;;;4860174;29;20479;-76
2023/08/16 01:07:53;;;;;;;10.27;6.25;;;17.10;99.90;;;;;;4861989;29;20049;-76
2023/08/16 01:10:31;;;;;;;9.63;6.50;;;17.10;99.90;;;;;;4844928;29;20051;-76
2023/08/16 01:13:06;;;;;;;9.82;6.20;;;17.10;99.90;;;;;;4878092;29;20120;-76
2023/08/16 01:15:36;;;;;;;10.73;6.35;;;17.00;99.90;;;;;;4876237;29;20052;-77
2023/08/16 01:18:02;;;;;;;12.90;5.90;;;17.00;99.90;;;;;;4877040;29;20052;-77
2023/08/16 01:20:30;;;;;;;11.35;6.05;;;16.90;99.90;;;;;;4860951;29;20083;-76
2023/08/16 01:23:08;;;;;;;10.35;6.35;;;16.90;99.90;;;;;;4872154;29;20060;-76
2023/08/16 01:25:42;;;;;;;11.50;6.88;;;16.90;99.90;;;;;;4878376;29;20057;-77
2023/08/16 01:28:09;;;;;;;8.60;5.80;;;16.90;99.90;;;;;;4861198;29;20057;-80
2023/08/16 01:30:36;;;;;;;11.90;5.85;;;16.80;99.90;;;;;;4889833;29;20563;-77
2023/08/16 01:33:09;;;;;;;9.30;6.30;;;16.80;99.90;;;;;;4888101;29;20049;-77
2023/08/16 01:35:35;;;;;;;9.38;6.60;;;16.80;99.90;;;;;;4865440;29;20041;-77
2023/08/16 01:38:05;;;;;;;14.00;6.32;;;16.80;99.90;;;;;;4881096;29;20045;-77
2023/08/16 01:40:37;;;;;;;10.48;6.43;;;16.80;99.90;;;;;;4865069;29;20061;-75
2023/08/16 01:43:10;;;;;;;12.27;7.18;;;16.80;99.90;;;;;;4881584;29;20041;-77
2023/08/16 01:45:36;;;;;;;10.15;6.80;;;16.70;99.90;;;;;;4878746;29;20049;-76
2023/08/16 01:48:03;;;;;;;11.48;7.30;;;16.70;99.90;;;;;;4867615;29;20779;-76
2023/08/16 01:50:29;;;;;;;12.40;6.93;;;16.60;99.90;;;;;;4875632;29;20295;-76
2023/08/16 01:52:55;;;;;;;11.02;6.68;;;16.70;99.90;;;;;;4866155;29;20499;-77
2023/08/16 01:55:21;;;;;;;11.13;6.65;;;16.50;99.90;;;;;;4879015;29;20052;-77
2023/08/16 01:57:47;;;;;;;11.05;6.10;;;16.50;99.90;;;;;;4884497;29;20041;-76
2023/08/16 02:00:13;;;;;;;8.55;6.78;;;16.50;99.90;;;;;;4864775;29;20041;-80
2023/08/16 02:02:38;;;;;;;11.55;7.32;;;16.50;99.90;;;;;;4880500;29;20048;-76
2023/08/16 02:05:05;;;;;;;15.40;7.63;;;16.50;99.90;;;;;;4882291;29;20185;-77
2023/08/16 02:07:30;;;;;;;10.57;7.82;;;16.50;99.90;;;;;;4862625;29;20530;-76
2023/08/16 02:09:56;;;;;;;12.48;7.07;;;16.50;99.90;;;;;;4879572;29;20053;-76
2023/08/16 02:12:22;;;;;;;9.75;6.65;;;16.40;99.90;;;;;;4858166;29;20445;-76
2023/08/16 02:14:47;;;;;;;12.13;6.72;;;16.40;99.90;;;;;;4878162;29;20087;-77
2023/08/16 02:17:13;;;;;;;10.98;7.40;;;16.40;99.90;;;;;;4864279;29;20037;-82
2023/08/16 02:19:41;;;;;;;14.20;6.97;;;16.40;99.90;;;;;;4848990;29;20121;-76
2023/08/16 02:22:07;;;;;;;11.13;6.97;;;16.40;99.90;;;;;;4879690;29;20104;-76
2023/08/16 02:24:32;;;;;;;13.98;7.32;;;16.40;99.90;;;;;;4880509;29;20077;-76
2023/08/16 02:26:58;;;;;;;12.43;7.70;;;16.50;99.90;;;;;;4879103;29;20053;-77
2023/08/16 02:29:24;;;;;;;10.77;6.63;;;16.40;99.90;;;;;;4878761;29;20560;-76
2023/08/16 02:31:49;;;;;;;8.77;6.90;;;16.40;99.90;;;;;;4848657;29;20044;-76
2023/08/16 02:34:15;;;;;;;12.43;6.82;;;16.40;99.90;;;;;;4850219;29;20104;-79
2023/08/16 02:36:41;;;;;;;11.68;7.63;;;16.30;99.90;;;;;;4898954;29;20045;-76
2023/08/16 02:39:08;;;;;;;9.88;7.07;;;16.30;99.90;;;;;;4865245;29;20052;-76
2023/08/16 02:41:34;;;;;;;12.30;7.68;;;16.30;99.90;;;;;;4864434;29;20052;-77
2023/08/16 02:44:00;;;;;;;12.70;7.38;;;16.30;99.90;;;;;;4879308;29;20057;-77
2023/08/16 02:46:26;;;;;;;10.88;7.78;;;16.20;99.90;;;;;;4884498;29;20483;-76
2023/08/16 02:48:51;;;;;;;12.38;7.90;;;16.20;99.90;;;;;;4854594;29;20057;-77
2023/08/16 02:51:17;;;;;;;9.70;7.22;;;16.20;99.90;;;;;;4863054;29;20049;-80
2023/08/16 02:53:43;;;;;;;11.95;7.75;;;16.20;99.90;;;;;;4878463;29;20099;-77
2023/08/16 02:56:09;;;;;;;11.32;7.72;;;16.20;99.90;;;;;;4865270;29;20053;-76
2023/08/16 02:58:34;;;;;;;11.02;7.68;;;16.10;99.90;;;;;;4848253;29;20041;-77
2023/08/16 03:01:00;;;;;;;13.60;7.95;;;16.00;99.90;;;;;;4848566;29;20049;-75
2023/08/16 03:03:26;;;;;;;13.57;7.72;;;16.00;99.90;;;;;;4864232;29;20460;-76
2023/08/16 03:05:51;;;;;;;16.83;7.35;;;16.00;99.90;;;;;;4886048;29;20494;-76
2023/08/16 03:08:17;;;;;;;14.50;7.35;;;16.00;99.90;;;;;;4884674;29;20621;-78
2023/08/16 03:10:43;;;;;;;12.55;8.35;;;16.00;99.90;;;;;;4863852;29;20123;-76
2023/08/16 03:13:08;;;;;;;11.57;7.13;;;16.00;99.90;;;;;;4864562;29;20484;-76
2023/08/16 03:15:34;;;;;;;10.13;7.47;;;16.00;99.90;;;;;;4879183;29;20045;-77
2023/08/16 03:18:00;;;;;;;15.00;7.72;;;16.00;99.90;;;;;;4888673;29;20060;-76
2023/08/16 03:20:26;;;;;;;10.45;7.65;;;16.00;99.90;;;;;;4889761;29;20048;-77
2023/08/16 03:22:52;;;;;;;11.15;7.57;;;15.90;99.90;;;;;;4860612;29;20081;-77
2023/08/16 03:25:17;;;;;;;13.13;7.90;;;15.90;99.90;;;;;;4853152;29;20451;-76
2023/08/16 03:27:43;;;;;;;12.10;7.72;;;15.90;99.90;;;;;;4870706;29;20053;-77
2023/08/16 03:30:10;;;;;;;10.50;7.95;;;15.90;99.90;;;;;;4888497;29;20132;-77
2023/08/16 03:32:35;;;;;;;10.43;7.57;;;15.90;99.90;;;;;;4894408;29;20052;-77
2023/08/16 03:35:02;;;;;;;9.85;7.47;;;15.90;99.90;;;;;;4882228;29;20052;-76
2023/08/16 03:37:28;;;;;;;11.55;8.05;;;15.90;99.90;;;;;;4896107;29;20062;-77
2023/08/16 03:39:54;;;;;;;12.02;8.50;;;15.90;99.90;;;;;;4876042;29;20048;-77
2023/08/16 03:42:20;;;;;;;11.13;8.27;;;15.90;99.90;;;;;;4856274;29;20575;-76
2023/08/16 03:44:45;;;;;;;13.70;7.93;;;15.80;99.90;;;;;;4880849;29;20045;-77
2023/08/16 03:47:11;;;;;;;13.65;7.97;;;15.80;99.90;;;;;;4872314;29;20049;-77
2023/08/16 03:49:37;;;;;;;13.18;7.97;;;15.80;99.90;;;;;;4895611;29;20110;-77
2023/08/16 03:52:03;;;;;;;11.93;7.47;;;15.80;99.90;;;;;;4892771;29;20466;-78
2023/08/16 03:54:29;;;;;;;11.93;8.35;;;15.70;99.90;;;;;;4867949;29;20072;-78
2023/08/16 03:56:56;;;;;;;13.75;8.07;;;15.70;99.90;;;;;;4897101;29;20045;-76
2023/08/16 03:59:22;;;;;;;10.13;7.70;;;15.70;99.90;;;;;;4895805;29;20124;-76
2023/08/16 04:01:48;;;;;;;10.32;7.43;;;15.70;99.90;;;;;;4879367;29;20052;-76
2023/08/16 04:04:14;;;;;;;13.23;7.88;;;15.70;99.90;;;;;;4873719;29;20108;-76
2023/08/16 04:06:39;;;;;;;11.35;7.75;;;15.70;99.90;;;;;;4864714;29;20052;-78
2023/08/16 04:09:06;;;;;;;14.57;7.78;;;15.70;99.90;;;;;;4832943;29;20052;-76
2023/08/16 04:11:32;;;;;;;13.55;8.05;;;15.60;99.90;;;;;;4889120;29;20052;-77
2023/08/16 04:13:58;;;;;;;12.65;8.05;;;15.60;99.90;;;;;;4878665;29;20084;-77
2023/08/16 04:16:23;;;;;;;9.63;7.55;;;15.60;99.90;;;;;;4877974;29;20097;-77
2023/08/16 04:18:53;;;;;;;13.02;8.20;;;15.60;99.90;;;;;;4876956;29;20041;-78
2023/08/16 04:21:19;;;;;;;11.13;7.97;;;15.60;99.90;;;;;;4884310;29;20569;-78
2023/08/16 04:23:45;;;;;;;11.45;7.70;;;15.60;99.90;;;;;;4846535;29;20108;-77
2023/08/16 04:26:10;;;;;;;12.38;7.90;;;15.60;99.90;;;;;;4847739;29;20057;-76
2023/08/16 04:28:36;;;;;;;12.77;7.70;;;15.60;99.90;;;;;;4889860;29;20076;-78
2023/08/16 04:31:03;;;;;;;10.75;7.28;;;15.60;99.90;;;;;;4869319;29;20534;-77
2023/08/16 04:33:30;;;;;;;11.77;7.95;;;15.60;99.90;;;;;;4859274;29;20049;-78
2023/08/16 04:35:55;;;;;;;15.75;7.78;;;15.50;99.90;;;;;;4865832;29;20068;-76
2023/08/16 04:38:22;;;;;;;12.77;7.22;;;15.50;99.90;;;;;;4872204;29;20055;-76
2023/08/16 04:40:51;;;;;;;10.07;7.93;;;15.60;99.90;;;;;;4851090;29;20448;-78
2023/08/16 04:43:18;;;;;;;9.63;8.18;;;15.60;99.90;;;;;;4861882;29;20049;-78
2023/08/16 04:45:45;;;;;;;11.30;8.23;;;15.60;99.90;;;;;;4877482;29;20049;-77
2023/08/16 04:48:11;;;;;;;13.65;7.68;;;15.60;99.90;;;;;;4868304;29;20041;-78
2023/08/16 04:50:36;;;;;;;9.30;7.70;;;15.60;99.90;;;;;;4862889;29;20048;-78
2023/08/16 04:53:02;;;;;;;10.50;7.85;;;15.60;99.90;;;;;;4871890;29;20057;-77
2023/08/16 04:55:28;;;;;;;9.57;7.65;;;15.70;99.90;;;;;;4878125;29;20049;-77
2023/08/16 04:57:55;;;;;;;13.45;8.00;;;15.70;99.90;;;;;;4862402;29;20166;-76
2023/08/16 05:00:21;;;;;;;10.30;7.93;;;15.70;99.90;;;;;;4877498;29;20057;-77
2023/08/16 05:02:46;;;;;;;11.45;7.40;;;15.80;99.90;;;;;;4862483;29;20140;-77
2023/08/16 05:05:12;;;;;;;10.10;7.22;;;15.80;99.90;;;;;;4877364;29;20509;-77
2023/08/16 05:07:38;;;;;;;9.85;7.35;;;15.80;99.90;;;;;;4846890;29;20131;-78
2023/08/16 05:10:05;;;;;;;10.45;7.68;;;15.80;99.90;;;;;;4863116;29;20130;-78
2023/08/16 05:12:31;;;;;;;11.48;7.13;;;15.80;99.90;;;;;;4867334;29;20055;-78
2023/08/16 05:14:56;;;;;;;9.30;6.90;;;15.80;99.90;;;;;;4865052;29;20049;-76
2023/08/16 05:17:22;;;;;;;9.95;7.53;;;15.90;99.90;;;;;;4849788;29;20043;-77
2023/08/16 05:19:48;;;;;;;10.73;7.22;;;15.90;99.90;;;;;;4865009;29;20049;-77
2023/08/16 05:22:13;;;;;;;10.25;7.45;;;16.00;99.90;;;;;;4884208;29;20125;-77
2023/08/16 05:24:39;;;;;;;9.73;7.22;;;16.00;99.90;;;;;;4858861;29;20452;-81
2023/08/16 05:27:11;;;;;;;11.30;7.60;;;16.10;99.90;;;;;;4849340;29;20059;-78
2023/08/16 05:29:38;;;;;;;11.50;7.15;;;16.20;99.90;;;;;;4866678;29;20045;-79
2023/08/16 05:32:03;;;;;;;11.45;7.80;;;16.30;99.90;;;;;;4865736;29;20076;-78
2023/08/16 05:34:29;;;;;;;10.05;7.38;;;16.50;99.90;;;;;;4875790;29;20105;-77
2023/08/16 05:36:55;;;;;;;11.52;6.70;;;16.80;99.90;;;;;;4864304;29;20084;-77
2023/08/16 05:39:22;;;;;;;11.50;7.30;;;17.50;99.90;;;;;;4880041;29;20445;-77
2023/08/16 05:41:48;;;;;;;8.43;6.93;;;18.40;99.90;;;;;;4880008;29;20073;-77
2023/08/16 05:44:14;;;;;;;8.95;6.68;;;19.50;99.90;;;;;;4850283;29;20399;-77
2023/08/16 05:46:40;;;;;;;10.15;6.05;;;20.30;99.90;;;;;;4864571;29;20045;-79
2023/08/16 05:49:05;;;;;;;9.48;6.53;;;21.20;99.90;;;;;;4863786;29;20056;-76
2023/08/16 05:51:35;;;;;;;11.52;6.40;;;21.90;99.90;;;;;;4864373;29;20577;-77
2023/08/16 05:54:04;;;;;;;11.10;6.15;;;22.50;99.90;;;;;;4864713;29;20569;-78
2023/08/16 05:56:30;;;;;;;9.10;5.75;;;22.90;99.90;;;;;;4848994;29;20049;-77
2023/08/16 05:58:56;;;;;;;8.95;5.43;;;23.40;99.90;;;;;;4863562;29;20045;-78
2023/08/16 06:01:22;;;;;;;6.82;4.93;;;23.70;99.90;;;;;;4863900;29;20506;-78
2023/08/16 06:03:47;;;;;;;7.15;4.95;;;24.20;99.90;;;;;;4883844;29;20052;-78
2023/08/16 06:06:14;;;;;;;9.63;4.85;;;24.60;99.90;;;;;;4873036;29;20057;-78
2023/08/16 06:08:40;;;;;;;9.40;5.18;;;25.00;99.90;;;;;;4867194;29;20053;-77
2023/08/16 06:11:06;;;;;;;6.22;4.53;;;25.50;99.90;;;;;;4878640;29;20299;-78
2023/08/16 06:13:32;;;;;;;7.57;3.70;;;26.00;99.90;;;;;;4864872;29;20056;-79
2023/08/16 06:15:57;;;;;;;5.68;3.58;;;26.40;99.90;;;;;;4879688;29;20087;-76
2023/08/16 06:18:23;;;;;;;7.10;4.05;;;26.80;99.90;;;;;;4879099;29;20045;-77
2023/08/16 06:20:49;;;;;;;6.72;3.83;;;27.10;99.90;;;;;;4878249;29;20045;-78
2023/08/16 06:23:15;;;;;;;8.73;3.38;;;27.30;99.90;;;;;;4872303;29;20049;-76
2023/08/16 06:25:40;;;;;;;8.02;3.13;;;26.80;99.90;;;;;;4863189;29;20049;-76
2023/08/16 06:28:06;;;;;;;4.78;2.65;;;26.10;99.90;;;;;;4878235;29;20052;-77
2023/08/16 06:30:32;;;;;;;7.55;3.60;;;25.60;99.90;;;;;;4862724;29;20106;-75
2023/08/16 06:32:57;;;;;;;9.18;3.75;;;25.50;99.90;;;;;;4886647;29;20399;-75
2023/08/16 06:35:24;;;;;;;8.35;3.03;;;25.50;99.90;;;;;;4878985;29;20045;-75
2023/08/16 06:37:50;;;;;;;6.15;2.78;;;25.70;99.90;;;;;;4864864;29;20041;-78
2023/08/16 06:40:16;;;;;;;4.75;2.60;;;25.90;99.90;;;;;;4878369;29;20045;-78
2023/08/16 06:42:42;;;;;;;5.53;2.28;;;26.00;99.90;;;;;;4847545;29;20149;-77
2023/08/16 06:45:09;;;;;;;5.65;2.30;;;26.10;99.90;;;;;;4862772;29;20790;-76
2023/08/16 06:47:35;;;;;;;5.22;2.25;;;26.40;99.90;;;;;;4866008;29;20052;-76
2023/08/16 06:50:01;;;;;;;8.57;2.40;;;26.50;99.90;;;;;;4887388;29;20048;-76
2023/08/16 06:52:27;;;;;;;5.72;2.25;;;26.50;99.90;;;;;;4849089;29;20053;-81
2023/08/16 06:54:52;;;;;;;5.80;2.13;;;26.70;99.90;;;;;;4873560;29;20440;-76
2023/08/16 06:57:18;;;;;;;5.07;1.90;;;27.10;99.90;;;;;;4880179;29;20144;-80
2023/08/16 06:59:44;;;;;;;5.22;1.88;;;27.30;99.90;;;;;;4878797;29;20049;-76
2023/08/16 07:02:11;;;;;;;3.58;1.70;;;27.40;99.90;;;;;;4879364;29;20103;-76
2023/08/16 07:04:38;;;;;;;4.78;1.70;;;27.80;99.30;;;;;;4878853;29;20057;-76
2023/08/16 07:07:05;;;;;;;4.07;1.83;;;28.00;98.80;;;;;;4892411;29;20052;-75
2023/08/16 07:09:31;;;;;;;5.47;1.88;;;27.70;99.00;;;;;;4884736;29;20053;-77
2023/08/16 07:11:57;;;;;;;4.00;1.60;;;27.60;99.40;;;;;;4878123;29;20067;-77
2023/08/16 07:14:22;;;;;;;3.42;1.50;;;27.80;99.00;;;;;;4880050;29;20045;-76
2023/08/16 07:16:48;;;;;;;4.20;1.70;;;27.90;98.80;;;;;;4880078;29;20077;-75
2023/08/16 07:19:14;;;;;;;3.40;1.50;;;28.10;98.30;;;;;;4880549;29;20041;-76
2023/08/16 07:21:40;;;;;;;5.93;1.70;;;27.70;98.60;;;;;;4869936;29;20078;-74
2023/08/16 07:24:06;;;;;;;6.80;2.17;;;27.60;99.00;;;;;;4869230;29;20412;-76
2023/08/16 07:26:31;;;;;;;4.88;1.80;;;27.60;98.90;;;;;;4865620;29;20080;-76
2023/08/16 07:28:57;;;;;;;4.97;1.77;;;27.50;98.90;;;;;;4870497;29;20088;-76
2023/08/16 07:31:23;;;;;;;5.47;1.85;;;27.30;98.90;;;;;;4874288;29;20049;-77
2023/08/16 07:33:49;;;;;;;5.35;1.98;;;27.30;99.30;;;;;;4878324;29;20056;-81
2023/08/16 07:36:15;;;;;;;5.45;1.70;;;27.70;99.20;;;;;;4869409;29;20190;-82
2023/08/16 07:38:40;;;;;;;4.38;1.25;;;28.60;98.40;;;;;;4881885;29;20049;-82
2023/08/16 07:41:07;;;;;;;4.20;1.45;;;29.30;97.30;;;;;;4855005;29;20045;-81
2023/08/16 07:43:32;;;;;;;5.00;1.58;;;30.00;96.80;;;;;;4882228;29;20060;-82
2023/08/16 07:45:58;;;;;;;2.78;1.50;;;30.40;96.10;;;;;;4878694;29;20400;-77
2023/08/16 07:48:24;;;;;;;2.85;1.42;;;30.80;95.80;;;;;;4878301;29;20048;-82
2023/08/16 07:50:50;;;;;;;3.97;1.67;;;31.10;95.40;;;;;;4873823;29;20053;-82
2023/08/16 07:53:16;;;;;;;5.93;1.80;;;31.20;95.10;;;;;;4877962;29;20088;-82
2023/08/16 07:55:42;;;;;;;4.68;1.75;;;31.10;95.00;;;;;;4878975;29;20127;-82
2023/08/16 07:58:07;;;;;;;4.03;1.77;;;31.40;94.90;;;;;;4861750;29;20523;-82
2023/08/16 08:00:33;;;;;;;4.35;1.63;;;31.30;94.70;;;;;;4847051;29;20088;-81
2023/08/16 08:02:59;;;;;;;6.82;1.40;;;30.90;94.40;;;;;;4877104;29;20080;-77
2023/08/16 08:05:25;;;;;;;4.72;1.67;;;30.50;94.50;;;;;;4883966;29;20049;-82
2023/08/16 08:07:55;;;;;;;4.80;1.60;;;29.60;94.60;;;;;;4879226;29;20048;-82
2023/08/16 08:10:21;;;;;;;3.60;1.55;;;28.70;95.20;;;;;;4878438;29;20053;-81
2023/08/16 08:12:47;;;;;;;5.88;1.98;;;28.70;95.60;;;;;;4878313;29;20411;-82
2023/08/16 08:15:13;;;;;;;3.35;1.63;;;29.00;95.20;;;;;;4878066;29;20045;-82
2023/08/16 08:17:40;;;;;;;5.43;1.95;;;29.60;95.00;;;;;;4878615;29;20049;-82
2023/08/16 08:20:08;;;;;;;2.63;1.33;;;30.00;94.40;;;;;;4877690;29;20060;-82
2023/08/16 08:22:34;;;;;;;4.03;1.50;;;30.30;94.00;;;;;;4878436;29;20131;-82
2023/08/16 08:25:00;;;;;;;3.22;1.50;;;30.50;94.10;;;;;;4890733;29;20052;-81
2023/08/16 08:27:26;;;;;;;4.22;1.60;;;31.10;93.70;;;;;;4875316;29;20052;-82
2023/08/16 08:29:52;;;;;;;3.60;1.40;;;31.70;93.70;;;;;;4874756;29;20395;-82
2023/08/16 08:32:17;;;;;;;4.97;1.60;;;31.70;93.30;;;;;;4877893;29;20130;-82
2023/08/16 08:34:43;;;;;;;2.80;1.40;;;31.70;93.00;;;;;;4877589;29;20052;-82
2023/08/16 08:37:09;;;;;;;5.45;1.88;;;31.70;93.00;;;;;;4876270;29;20060;-81
2023/08/16 08:39:35;;;;;;;3.47;1.73;;;31.90;92.90;;;;;;4862029;29;20221;-80
2023/08/16 08:42:03;;;;;;;3.33;1.45;;;32.20;92.90;;;;;;4875169;29;20057;-79
2023/08/16 08:44:30;;;;;;;3.10;1.20;;;32.40;92.50;;;;;;4873216;29;20132;-77
2023/08/16 08:46:56;;;;;;;4.43;1.45;;;32.90;91.90;;;;;;4880959;29;20124;-79
2023/08/16 08:49:23;;;;;;;3.35;1.20;;;32.80;92.10;;;;;;4881341;29;20053;-79
2023/08/16 08:51:49;;;;;;;3.55;1.48;;;33.20;92.00;;;;;;4881121;29;20136;-79
2023/08/16 08:54:15;;;;;;;3.53;1.30;;;32.80;91.60;;;;;;4845704;29;1131056;-79
2023/08/16 08:56:42;;;;;;;3.40;1.42;;;32.90;91.90;;;;;;4883453;29;20061;-79
2023/08/16 08:59:11;;;;;;;3.40;1.40;;;33.10;91.50;;;;;;4865208;29;20061;-75
2023/08/16 09:01:38;;;;;;;3.92;1.65;;;33.30;91.20;;;;;;4880596;29;20049;-79
2023/08/16 09:04:05;;;;;;;3.35;1.33;;;33.50;91.00;;;;;;4882164;29;20550;-79
2023/08/16 09:06:32;;;;;;;3.72;1.23;;;33.60;91.00;;;;;;4880376;29;20044;-79
2023/08/16 09:08:58;;;;;;;3.85;1.50;;;33.50;90.80;;;;;;4865797;29;20087;-79
2023/08/16 09:11:27;;;;;;;3.90;1.40;;;33.60;90.90;;;;;;4879318;29;20048;-79
2023/08/16 09:13:54;;;;;;;4.63;1.48;;;33.60;90.60;;;;;;4881994;29;20510;-80
2023/08/16 09:16:20;;;;;;;3.17;1.50;;;33.30;90.60;;;;;;4880345;29;20071;-79
2023/08/16 09:18:50;;;;;;;3.25;1.65;;;33.00;90.90;;;;;;4880372;29;20724;-79
2023/08/16 09:21:18;;;;;;;3.88;1.70;;;33.00;90.50;;;;;;4881415;29;20064;-79
2023/08/16 09:23:45;;;;;;;4.90;1.70;;;32.80;90.80;;;;;;4881673;29;20049;-80
2023/08/16 09:26:15;;;;;;;3.38;1.73;;;32.40;90.90;;;;;;4887600;29;20067;-76
2023/08/16 09:28:41;;;;;;;4.78;1.60;;;32.50;90.80;;;;;;4886390;29;20085;-79
2023/08/16 09:31:07;;;;;;;4.32;1.52;;;32.70;90.60;;;;;;4882599;29;20052;-80
2023/08/16 09:33:38;;;;;;;3.33;1.48;;;32.50;90.60;;;;;;4880218;29;20052;-80
2023/08/16 09:36:04;;;;;;;4.70;1.52;;;32.20;90.40;;;;;;4875628;29;20059;-79
2023/08/16 09:38:32;;;;;;;3.50;1.65;;;32.30;90.90;;;;;;4881589;29;20363;-80
2023/08/16 09:40:58;;;;;;;5.45;1.83;;;32.20;90.90;;;;;;4881477;29;20424;-83
2023/08/16 09:43:24;;;;;;;4.07;1.92;;;32.20;91.00;;;;;;4876246;29;20053;-83
2023/08/16 09:45:54;;;;;;;4.53;1.80;;;31.70;91.20;;;;;;4869570;29;20057;-86
2023/08/16 09:48:21;;;;;;;5.18;1.50;;;31.40;91.70;;;;;;4882970;29;20127;-86
2023/08/16 09:50:47;;;;;;;3.25;1.50;;;30.80;91.50;;;;;;4877344;29;20053;-84
2023/08/16 09:53:13;;;;;;;3.58;1.67;;;30.20;91.80;;;;;;4869316;29;20088;-76
2023/08/16 09:55:41;;;;;;;4.32;1.85;;;30.00;92.30;;;;;;4882686;29;20056;-84
2023/08/16 09:58:08;;;;;;;3.67;1.83;;;29.80;92.50;;;;;;4887905;29;20080;-82
2023/08/16 10:00:34;;;;;;;4.05;1.88;;;29.70;92.70;;;;;;4880757;29;20146;-85
2023/08/16 10:03:01;;;;;;;7.82;1.90;;;29.50;92.60;;;;;;4881679;29;20063;-84
2023/08/16 10:05:27;;;;;;;5.75;2.08;;;29.40;92.70;;;;;;4878217;29;20488;-84
2023/08/16 10:07:56;;;;;;;3.47;1.88;;;29.50;92.40;;;;;;4873726;29;20059;-83
2023/08/16 10:10:22;;;;;;;5.47;2.00;;;29.20;92.60;;;;;;4880648;29;20045;-84
2023/08/16 10:12:48;;;;;;;5.80;1.90;;;28.90;92.70;;;;;;4881076;29;20468;-87
2023/08/16 10:15:14;;;;;;;5.15;2.10;;;28.80;92.90;;;;;;4880936;29;20055;-84
2023/08/16 10:17:42;;;;;;;3.63;1.80;;;28.60;93.00;;;;;;4862156;29;20093;-83
2023/08/16 10:20:24;;;;;;;4.18;1.77;;;28.60;93.10;;;;;;4876945;29;20056;-77
2023/08/16 10:22:57;;;;;;;4.03;1.80;;;28.40;93.20;;;;;;4869526;29;20069;-82
2023/08/16 10:25:25;;;;;;;3.90;1.70;;;28.20;93.40;;;;;;4882882;29;20069;-82
2023/08/16 10:27:55;;;;;;;4.30;1.60;;;28.10;93.50;;;;;;4881410;29;20096;-84
2023/08/16 10:30:22;;;;;;;4.68;1.70;;;28.10;94.20;;;;;;4864484;29;20061;-80
2023/08/16 10:32:55;;;;;;;3.00;1.52;;;28.00;93.40;;;;;;4881747;29;20060;-81
2023/08/16 10:35:21;;;;;;;4.05;1.70;;;27.80;93.60;;;;;;4891940;29;20175;-75
2023/08/16 10:37:47;;;;;;;5.30;2.00;;;27.50;93.80;;;;;;4880297;29;20045;-82
2023/08/16 10:40:20;;;;;;;4.47;1.70;;;27.60;94.20;;;;;;4879811;29;20049;-82
2023/08/16 10:42:52;;;;;;;5.65;2.28;;;27.70;94.20;;;;;;4883186;29;20053;-82
2023/08/16 10:45:34;;;;;;;3.83;1.83;;;27.90;93.80;;;;;;4882514;29;20053;-83
2023/08/16 10:48:18;;;;;;;5.03;2.05;;;27.80;93.70;;;;;;4864587;29;20097;-82
2023/08/16 10:50:50;;;;;;;5.05;1.80;;;27.60;93.80;;;;;;4881032;29;20049;-80
2023/08/16 10:53:18;;;;;;;4.60;1.77;;;27.60;94.10;;;;;;4879722;29;20089;-81
2023/08/16 10:55:52;;;;;;;6.30;2.00;;;27.60;94.00;;;;;;4880280;29;20049;-83
2023/08/16 10:58:23;;;;;;;3.78;2.05;;;27.70;94.00;;;;;;4863494;29;20546;-83
2023/08/16 11:01:00;;;;;;;5.78;2.17;;;27.70;93.70;;;;;;4864490;29;20044;-83
2023/08/16 11:03:33;;;;;;;5.22;2.20;;;27.40;94.10;;;;;;4877685;29;20052;-81
2023/08/16 11:06:01;;;;;;;7.75;2.40;;;27.20;94.40;;;;;;4879475;29;20057;-81
2023/08/16 11:08:32;;;;;;;5.22;2.30;;;27.20;94.20;;;;;;4878788;29;20060;-81
2023/08/16 11:11:01;;;;;;;5.55;2.40;;;27.10;94.20;;;;;;4881270;29;20057;-82
2023/08/16 11:13:28;;;;;;;4.22;2.10;;;27.20;94.10;;;;;;4879362;29;20103;-82
2023/08/16 11:15:55;;;;;;;3.42;2.03;;;27.20;94.20;;;;;;4880726;29;20044;-82
2023/08/16 11:18:31;;;;;;;4.55;2.05;;;27.10;94.10;;;;;;4886005;29;20055;-82
2023/08/16 11:20:59;;;;;;;3.78;2.30;;;27.10;94.10;;;;;;4883467;29;20192;-83
2023/08/16 11:23:42;;;;;;;6.35;2.17;;;27.10;93.90;;;;;;4880038;29;20052;-75
2023/08/16 11:26:10;;;;;;;3.63;2.42;;;27.00;94.10;;;;;;4880961;29;20135;-83
2023/08/16 11:28:38;;;;;;;5.65;2.50;;;27.00;94.00;;;;;;4878690;29;20105;-83
2023/08/16 11:31:06;;;;;;;5.97;2.30;;;26.90;94.30;;;;;;4884419;29;20128;-82
2023/08/16 11:33:39;;;;;;;5.07;2.10;;;26.90;94.70;;;;;;4883154;29;20072;-83
2023/08/16 11:36:08;;;;;;;4.80;1.90;;;26.80;94.50;;;;;;4880589;29;20049;-82
2023/08/16 11:38:34;;;;;;;4.00;1.85;;;26.60;94.50;;;;;;4874022;29;20053;-83
2023/08/16 11:41:01;;;;;;;5.38;1.77;;;26.60;94.40;;;;;;4874337;29;20044;-80
2023/08/16 11:43:28;;;;;;;2.47;1.52;;;26.60;93.80;;;;;;4859344;29;20072;-77
2023/08/16 11:45:54;;;;;;;2.90;1.50;;;26.40;93.80;;;;;;4876206;29;20088;-81
2023/08/16 11:48:20;;;;;;;3.22;1.63;;;26.30;93.90;;;;;;4877387;29;20488;-81
2023/08/16 11:50:48;;;;;;;6.07;2.15;;;26.30;93.90;;;;;;4877613;29;20081;-83
2023/08/16 11:53:18;;;;;;;4.82;2.08;;;26.30;94.20;;;;;;4860986;29;20068;-84
2023/08/16 11:55:57;;;;;;;4.45;2.45;;;26.20;94.70;;;;;;4876152;29;20547;-83
2023/08/16 11:58:22;;;;;;;6.28;2.42;;;26.20;94.70;;;;;;4876907;29;20056;-83
2023/08/16 12:00:48;;;;;;;4.57;2.40;;;26.10;94.80;;;;;;4878601;29;20057;-82
2023/08/16 12:03:17;;;;;;;4.07;2.00;;;26.10;94.70;;;;;;4877249;29;20053;-82
2023/08/16 12:05:49;;;;;;;3.80;1.95;;;26.20;94.70;;;;;;4875732;29;20069;-80
2023/08/16 12:08:22;;;;;;;3.85;1.80;;;26.30;94.60;;;;;;4877490;29;20048;-76
2023/08/16 12:10:54;;;;;;;3.20;1.95;;;26.40;94.30;;;;;;4873282;29;20049;-78
2023/08/16 12:13:21;;;;;;;3.80;1.98;;;26.40;94.50;;;;;;4880475;29;20076;-79
2023/08/16 12:15:48;;;;;;;7.00;2.08;;;26.40;94.60;;;;;;4875299;29;20056;-82
2023/08/16 12:18:14;;;;;;;5.85;2.10;;;26.30;94.70;;;;;;4886420;29;20045;-82
2023/08/16 12:20:41;;;;;;;5.90;2.05;;;26.20;94.90;;;;;;4888999;29;20080;-82
2023/08/16 12:23:08;;;;;;;3.97;2.20;;;26.20;94.90;;;;;;4860592;29;20088;-80
2023/08/16 12:25:35;;;;;;;4.03;2.28;;;26.20;94.70;;;;;;4878824;29;20073;-76
2023/08/16 12:28:01;;;;;;;6.00;2.00;;;26.20;94.60;;;;;;4883540;29;20045;-83
2023/08/16 12:30:28;;;;;;;5.20;2.15;;;26.10;94.70;;;;;;4881731;29;20048;-81
2023/08/16 12:32:57;;;;;;;6.53;1.90;;;26.10;94.60;;;;;;4860200;29;20049;-80
2023/08/16 12:35:23;;;;;;;5.45;2.03;;;26.00;94.70;;;;;;4875710;29;20053;-81
2023/08/16 12:37:49;;;;;;;4.20;1.98;;;26.10;94.70;;;;;;4879456;29;20072;-79
2023/08/16 12:40:14;;;;;;;4.68;1.70;;;26.10;94.60;;;;;;4880438;29;20511;-82
2023/08/16 12:42:40;;;;;;;10.73;2.30;;;26.10;94.80;;;;;;4876270;29;20082;-81